createdAt,value
2023-04-25T00:02:26.373Z,70.51
2023-04-25T00:05:33.744Z,70.71
2023-04-25T00:08:39.782Z,71.05
2023-04-25T00:11:49.017Z,70.72
2023-04-25T00:14:54.457Z,70.90
2023-04-25T00:18:01.452Z,71.78
2023-04-25T00:21:07.585Z,71.14
2023-04-25T00:24:14.031Z,71.28
2023-04-25T00:27:22.034Z,71.97
2023-04-25T00:30:28.379Z,73.51
2023-04-25T00:33:34.029Z,73.95
2023-04-25T00:36:40.820Z,75.03
2023-04-25T00:39:46.642Z,74.68
2023-04-25T00:42:57.294Z,75.37
2023-04-25T00:46:04.415Z,75.95
2023-04-25T00:49:16.600Z,76.47
2023-04-25T00:52:22.123Z,76.93
2023-04-25T00:55:28.901Z,76.70
2023-04-25T00:58:37.173Z,76.45
2023-04-25T01:01:45.372Z,75.74
2023-04-25T01:04:52.459Z,74.87
2023-04-25T01:07:58.916Z,75.48
2023-04-25T01:11:05.790Z,75.55
2023-04-25T01:14:15.538Z,75.39
2023-04-25T01:17:23.601Z,75.00
2023-04-25T01:20:32.650Z,74.32
2023-04-25T01:23:42.484Z,74.47
2023-04-25T01:26:51.059Z,74.52
2023-04-25T01:30:01.748Z,74.41
2023-04-25T01:33:09.867Z,74.18
2023-04-25T01:36:16.765Z,74.09
2023-04-25T01:39:26.117Z,74.93
2023-04-25T01:42:31.631Z,74.05
2023-04-25T01:45:40.751Z,74.68
2023-04-25T01:48:46.916Z,74.43
2023-04-25T01:51:53.874Z,73.66
2023-04-25T01:55:06.019Z,73.37
2023-04-25T01:58:15.212Z,74.21
2023-04-25T02:01:38.005Z,73.39
2023-04-25T02:04:57.722Z,72.97
2023-04-25T02:08:05.983Z,72.64
2023-04-25T02:11:15.222Z,72.43
2023-04-25T02:14:29.991Z,72.77
2023-04-25T02:17:42.291Z,73.14
2023-04-25T02:20:48.469Z,73.47
2023-04-25T02:23:55.165Z,73.56
2023-04-25T02:27:03.484Z,73.92
2023-04-25T02:30:11.524Z,73.67
2023-04-25T02:33:18.245Z,73.53
2023-04-25T02:36:25.253Z,74.54
2023-04-25T02:39:30.945Z,74.30
2023-04-25T02:42:40.854Z,74.24
2023-04-25T02:45:46.537Z,73.80
2023-04-25T02:48:53.134Z,72.83
2023-04-25T02:51:58.670Z,73.26
2023-04-25T02:55:05.406Z,73.41
2023-04-25T02:58:16.114Z,72.85
2023-04-25T03:01:28.877Z,73.02
2023-04-25T03:04:34.825Z,72.24
2023-04-25T03:07:42.004Z,72.51
2023-04-25T03:10:51.470Z,71.62
2023-04-25T03:14:01.312Z,71.67
2023-04-25T03:17:06.818Z,71.83
2023-04-25T03:20:16.161Z,71.89
2023-04-25T03:23:21.787Z,71.22
2023-04-25T03:26:28.318Z,71.05
2023-04-25T03:29:36.823Z,71.14
2023-04-25T03:32:44.823Z,70.33
2023-04-25T03:35:54.317Z,70.65
2023-04-25T03:39:00.813Z,70.11
2023-04-25T03:42:09.011Z,70.02
2023-04-25T03:45:18.317Z,69.97
2023-04-25T03:48:25.991Z,69.89
2023-04-25T03:51:33.722Z,69.71
2023-04-25T03:54:41.165Z,69.17
2023-04-25T03:57:54.228Z,68.96
2023-04-25T04:01:04.346Z,69.56
2023-04-25T04:04:11.795Z,69.02
2023-04-25T04:07:18.222Z,69.32
2023-04-25T04:10:27.682Z,68.66
2023-04-25T04:13:34.468Z,68.70
2023-04-25T04:16:46.073Z,68.82
2023-04-25T04:19:52.151Z,67.40
2023-04-25T04:23:00.434Z,67.15
2023-04-25T04:26:06.368Z,67.68
2023-04-25T04:29:37.899Z,67.41
2023-04-25T04:32:55.169Z,67.29
2023-04-25T04:36:02.189Z,66.69
2023-04-25T04:39:10.443Z,66.44
2023-04-25T04:42:23.426Z,67.10
2023-04-25T04:45:34.791Z,66.95
2023-04-25T04:49:02.415Z,66.63
2023-04-25T04:52:34.054Z,66.28
2023-04-25T04:55:59.237Z,66.28
2023-04-25T04:59:51.758Z,65.91
2023-04-25T05:03:28.552Z,65.78
2023-04-25T05:07:18.063Z,65.44
2023-04-25T05:10:30.677Z,65.42
2023-04-25T05:13:36.061Z,65.80
2023-04-25T05:17:32.550Z,64.99
2023-04-25T05:20:45.890Z,65.75
2023-04-25T05:24:08.274Z,64.76
2023-04-25T05:27:32.175Z,63.46
2023-04-25T05:30:39.355Z,64.17
2023-04-25T05:33:56.954Z,63.77
2023-04-25T05:37:07.740Z,62.91
2023-04-25T05:40:27.117Z,62.72
2023-04-25T05:43:48.549Z,63.20
2023-04-25T05:47:07.793Z,62.29
2023-04-25T05:50:34.077Z,63.12
2023-04-25T05:53:43.374Z,63.08
2023-04-25T05:56:52.748Z,62.94
2023-04-25T05:59:58.782Z,60.94
2023-04-25T06:03:20.946Z,59.90
2023-04-25T06:06:28.077Z,61.09
2023-04-25T06:09:34.416Z,60.42
2023-04-25T06:12:42.760Z,60.80
2023-04-25T06:15:49.338Z,60.25
2023-04-25T06:18:55.356Z,58.99
2023-04-25T06:22:01.788Z,57.93
2023-04-25T06:25:08.441Z,58.30
2023-04-25T06:28:17.994Z,57.90
2023-04-25T06:31:24.274Z,58.54
2023-04-25T06:34:31.957Z,58.73
2023-04-25T06:37:38.561Z,58.75
2023-04-25T06:40:44.973Z,58.99
2023-04-25T06:43:53.279Z,58.00
2023-04-25T06:47:08.019Z,56.47
2023-04-25T06:50:14.504Z,57.58
2023-04-25T06:53:21.050Z,57.49
2023-04-25T06:56:33.843Z,57.88
2023-04-25T06:59:51.020Z,57.26
2023-04-25T07:02:57.035Z,55.60
2023-04-25T07:06:03.647Z,55.28
2023-04-25T07:09:10.071Z,55.31
2023-04-25T07:12:16.699Z,56.45
2023-04-25T07:15:26.202Z,56.09
2023-04-25T07:18:32.708Z,55.88
2023-04-25T07:21:39.167Z,56.51
2023-04-25T07:24:50.002Z,56.28
2023-04-25T07:27:58.849Z,56.21
2023-04-25T07:31:09.404Z,55.91
2023-04-25T07:34:14.882Z,56.31
2023-04-25T07:37:21.764Z,55.44
2023-04-25T07:40:45.203Z,54.89
2023-04-25T07:43:52.804Z,54.98
2023-04-25T07:47:04.391Z,54.08
2023-04-25T07:50:13.675Z,55.14
2023-04-25T07:53:19.831Z,53.59
2023-04-25T07:56:51.495Z,53.07
2023-04-25T07:59:59.041Z,52.78
2023-04-25T08:03:09.408Z,53.27
2023-04-25T08:06:16.720Z,53.16
2023-04-25T08:09:35.793Z,52.36
2023-04-25T08:12:43.897Z,52.75
2023-04-25T08:15:50.765Z,51.88
2023-04-25T08:18:59.478Z,50.78
2023-04-25T08:22:06.025Z,51.37
2023-04-25T08:25:22.690Z,52.62
2023-04-25T08:28:29.976Z,52.43
2023-04-25T08:31:38.709Z,52.27
2023-04-25T08:34:50.401Z,51.68
2023-04-25T08:37:56.348Z,52.76
2023-04-25T08:41:05.085Z,49.84
2023-04-25T08:44:17.703Z,50.61
2023-04-25T08:47:27.374Z,49.47
2023-04-25T08:50:40.544Z,49.65
2023-04-25T08:53:54.129Z,49.99
2023-04-25T08:57:07.053Z,48.66
2023-04-25T09:00:16.014Z,48.05
2023-04-25T09:03:24.298Z,48.20
2023-04-25T09:06:39.047Z,47.44
2023-04-25T09:09:46.045Z,45.58
2023-04-25T09:13:10.104Z,46.28
2023-04-25T09:17:06.339Z,45.86
2023-04-25T09:20:29.420Z,45.91
2023-04-25T09:23:45.296Z,46.77
2023-04-25T09:26:51.840Z,46.26
2023-04-25T09:30:03.521Z,45.22
2023-04-25T09:33:37.027Z,45.62
2023-04-25T09:36:44.622Z,45.38
2023-04-25T09:40:14.433Z,44.69
2023-04-25T09:43:41.567Z,44.94
2023-04-25T09:46:48.084Z,44.73
2023-04-25T09:50:00.627Z,44.68
2023-04-25T09:53:08.350Z,43.24
2023-04-25T09:57:15.634Z,44.33
2023-04-25T10:00:25.747Z,44.88
2023-04-25T10:03:34.297Z,43.96
2023-04-25T10:06:56.400Z,44.53
2023-04-25T10:10:05.790Z,43.36
2023-04-25T10:13:16.773Z,43.45
2023-04-25T10:16:23.450Z,42.27
2023-04-25T10:19:31.468Z,42.88
2023-04-25T10:22:42.499Z,41.08
2023-04-25T10:25:50.168Z,41.03
2023-04-25T10:29:07.438Z,41.65
2023-04-25T10:32:13.914Z,40.96
2023-04-25T10:35:33.917Z,40.39
2023-04-25T10:38:41.501Z,40.33
2023-04-25T10:41:52.399Z,40.60
2023-04-25T10:45:13.633Z,41.74
2023-04-25T10:48:29.983Z,41.33
2023-04-25T10:51:54.500Z,41.29
2023-04-25T10:55:03.019Z,41.04
2023-04-25T10:58:09.347Z,41.71
2023-04-25T11:01:19.611Z,42.26
2023-04-25T11:04:28.530Z,42.01
2023-04-25T11:07:45.956Z,41.44
2023-04-25T11:10:53.451Z,42.21
2023-04-25T11:13:59.240Z,42.53
2023-04-25T11:17:08.849Z,42.38
2023-04-25T11:20:17.104Z,43.11
2023-04-25T11:23:23.553Z,42.04
2023-04-25T11:26:29.983Z,42.29
2023-04-25T11:29:40.119Z,41.32
2023-04-25T11:32:48.742Z,41.16
2023-04-25T11:35:57.006Z,40.43
2023-04-25T11:39:02.585Z,39.61
2023-04-25T11:42:11.697Z,40.04
2023-04-25T11:45:20.037Z,39.72
2023-04-25T11:48:29.629Z,40.36
2023-04-25T11:51:42.672Z,40.29
2023-04-25T11:54:49.520Z,41.54
2023-04-25T11:57:57.006Z,40.99
2023-04-25T12:01:05.383Z,40.93
2023-04-25T12:04:22.939Z,40.86
2023-04-25T12:07:33.832Z,40.97
2023-04-25T12:10:44.303Z,41.26
2023-04-25T12:13:57.026Z,41.62
2023-04-25T12:17:06.571Z,42.17
2023-04-25T12:20:19.707Z,42.86
2023-04-25T12:23:31.677Z,42.86
2023-04-25T12:26:56.011Z,43.69
2023-04-25T12:30:03.089Z,42.96
2023-04-25T12:33:09.680Z,42.81
2023-04-25T12:36:18.329Z,43.14
2023-04-25T12:39:28.714Z,43.39
2023-04-25T12:42:34.193Z,43.80
2023-04-25T12:45:41.201Z,43.97
2023-04-25T12:48:46.968Z,43.93
2023-04-25T12:51:56.312Z,43.63
2023-04-25T12:55:02.037Z,43.11
2023-04-25T12:58:08.859Z,42.03
2023-04-25T13:01:15.196Z,42.48
2023-04-25T13:04:22.551Z,42.60
2023-04-25T13:07:31.991Z,42.30
2023-04-25T13:10:40.576Z,42.91
2023-04-25T13:13:48.322Z,42.69
2023-04-25T13:16:55.681Z,41.84
2023-04-25T13:20:01.746Z,41.78
2023-04-25T13:23:11.189Z,41.88
2023-04-25T13:26:17.026Z,42.01
2023-04-25T13:29:23.744Z,41.30
2023-04-25T13:32:29.287Z,41.11
2023-04-25T13:35:36.461Z,41.87
2023-04-25T13:38:46.315Z,41.69
2023-04-25T13:41:53.137Z,41.13
2023-04-25T13:44:58.667Z,41.69
2023-04-25T13:48:05.229Z,41.74
2023-04-25T13:51:11.095Z,41.28
2023-04-25T13:54:20.162Z,41.69
2023-04-25T13:57:25.778Z,41.30
2023-04-25T14:00:32.671Z,41.79
2023-04-25T14:03:38.605Z,41.69
2023-04-25T14:06:45.382Z,42.57
2023-04-25T14:09:53.737Z,42.48
2023-04-25T14:13:01.907Z,42.21
2023-04-25T14:16:08.207Z,42.30
2023-04-25T14:19:14.528Z,42.12
2023-04-25T14:22:20.784Z,42.13
2023-04-25T14:25:30.886Z,42.60
2023-04-25T14:28:36.441Z,42.56
2023-04-25T14:31:44.570Z,41.92
2023-04-25T14:34:50.388Z,41.99
2023-04-25T14:37:58.254Z,40.96
2023-04-25T14:41:08.024Z,41.18
2023-04-25T14:44:15.224Z,41.38
2023-04-25T14:47:21.103Z,40.60
2023-04-25T14:50:27.595Z,41.41
2023-04-25T14:53:33.473Z,41.14
2023-04-25T14:56:42.610Z,41.08
2023-04-25T14:59:48.786Z,40.57
2023-04-25T15:02:55.763Z,41.01
2023-04-25T15:06:01.411Z,40.40
2023-04-25T15:09:07.978Z,41.04
2023-04-25T15:12:16.843Z,40.57
2023-04-25T15:15:26.889Z,40.78
2023-04-25T15:18:32.688Z,40.79
2023-04-25T15:21:40.194Z,41.61
2023-04-25T15:24:45.853Z,41.64
2023-04-25T15:27:56.153Z,41.78
2023-04-25T15:31:01.693Z,41.71
2023-04-25T15:34:08.358Z,42.10
2023-04-25T15:37:13.967Z,41.97
2023-04-25T15:40:21.458Z,42.57
2023-04-25T15:43:30.033Z,42.30
2023-04-25T15:46:36.674Z,42.29
2023-04-25T15:49:42.270Z,42.07
2023-04-25T15:52:48.984Z,42.23
2023-04-25T15:55:54.644Z,42.21
2023-04-25T15:59:03.753Z,41.50
2023-04-25T16:02:09.274Z,41.06
2023-04-25T16:05:15.918Z,40.02
2023-04-25T16:08:21.678Z,39.43
2023-04-25T16:11:28.194Z,38.92
2023-04-25T16:14:36.537Z,37.92
2023-04-25T16:17:43.060Z,37.26
2023-04-25T16:20:48.585Z,36.73
2023-04-25T16:23:54.970Z,36.10
2023-04-25T16:27:00.789Z,35.40
2023-04-25T16:30:12.888Z,35.47
2023-04-25T16:33:18.618Z,35.83
2023-04-25T16:36:25.340Z,35.69
2023-04-25T16:39:31.070Z,35.44
2023-04-25T16:42:37.616Z,35.69
2023-04-25T16:45:46.016Z,35.88
2023-04-25T16:48:52.789Z,36.23
2023-04-25T16:51:58.573Z,36.96
2023-04-25T16:55:05.113Z,37.21
2023-04-25T16:58:12.261Z,37.09
2023-04-25T17:01:21.793Z,37.52
2023-04-25T17:04:27.896Z,37.63
2023-04-25T17:07:34.367Z,38.54
2023-04-25T17:10:39.866Z,38.67
2023-04-25T17:13:46.645Z,38.97
2023-04-25T17:16:55.068Z,39.54
2023-04-25T17:20:01.539Z,39.84
2023-04-25T17:23:07.446Z,39.49
2023-04-25T17:26:13.876Z,40.03
2023-04-25T17:29:19.445Z,40.83
2023-04-25T17:32:28.818Z,40.89
2023-04-25T17:35:34.364Z,41.72
2023-04-25T17:38:41.005Z,42.07
2023-04-25T17:41:46.600Z,42.42
2023-04-25T17:44:55.043Z,41.79
2023-04-25T17:48:04.098Z,43.08
2023-04-25T17:51:10.807Z,43.04
2023-04-25T17:54:16.508Z,43.33
2023-04-25T17:57:25.529Z,43.40
2023-04-25T18:00:32.133Z,42.93
2023-04-25T18:03:42.543Z,43.00
2023-04-25T18:06:48.502Z,43.36
2023-04-25T18:09:55.160Z,44.80
2023-04-25T18:13:01.072Z,45.06
2023-04-25T18:16:08.783Z,45.14
2023-04-25T18:19:21.795Z,45.35
2023-04-25T18:22:28.258Z,44.74
2023-04-25T18:25:35.524Z,45.12
2023-04-25T18:28:41.914Z,45.16
2023-04-25T18:31:49.699Z,45.92
2023-04-25T18:34:59.194Z,46.33
2023-04-25T18:38:04.827Z,46.61
2023-04-25T18:44:20.975Z,46.83
2023-04-25T18:47:27.496Z,47.03
2023-04-25T18:50:36.107Z,47.02
2023-04-25T18:53:42.654Z,45.94
2023-04-25T18:56:48.203Z,46.06
2023-04-25T18:59:55.261Z,46.66
2023-04-25T19:03:03.750Z,45.86
2023-04-25T19:06:13.767Z,47.17
2023-04-25T19:09:19.322Z,46.72
2023-04-25T19:12:57.493Z,46.83
2023-04-25T19:16:03.026Z,46.52
2023-04-25T19:19:11.934Z,47.29
2023-04-25T19:22:20.681Z,47.27
2023-04-25T19:25:28.030Z,47.05
2023-04-25T19:28:34.031Z,47.12
2023-04-25T19:31:43.118Z,47.81
2023-04-25T19:34:48.626Z,47.46
2023-04-25T19:37:57.802Z,48.06
2023-04-25T19:41:03.381Z,47.94
2023-04-25T19:44:12.390Z,47.47
2023-04-25T19:47:18.001Z,48.09
2023-04-25T19:50:25.046Z,47.92
2023-04-25T19:53:33.402Z,48.42
2023-04-25T19:56:39.739Z,48.04
2023-04-25T19:59:48.349Z,48.60
2023-04-25T20:02:54.850Z,49.02
2023-04-25T20:06:00.638Z,49.04
2023-04-25T20:09:09.900Z,49.65
2023-04-25T20:12:15.333Z,49.51
2023-04-25T20:15:22.414Z,50.04
2023-04-25T20:18:27.924Z,50.84
2023-04-25T20:21:34.936Z,50.95
2023-04-25T20:24:43.302Z,52.05
2023-04-25T20:27:49.677Z,51.96
2023-04-25T20:30:55.425Z,52.12
2023-04-25T20:34:02.271Z,52.30
2023-04-25T20:37:09.235Z,52.66
2023-04-25T20:40:18.665Z,53.37
2023-04-25T20:43:26.022Z,53.30
2023-04-25T20:46:32.616Z,53.22
2023-04-25T20:49:38.204Z,53.00
2023-04-25T20:52:44.890Z,53.87
2023-04-25T20:55:53.128Z,53.84
2023-04-25T20:59:00.606Z,54.67
2023-04-25T21:02:06.349Z,55.29
2023-04-25T21:05:14.475Z,55.60
2023-04-25T21:08:20.017Z,55.10
2023-04-25T21:11:29.332Z,55.38
2023-04-25T21:14:35.156Z,55.38
2023-04-25T21:17:42.153Z,55.40
2023-04-25T21:20:47.771Z,55.44
2023-04-25T21:23:54.359Z,54.51
2023-04-25T21:27:02.816Z,54.19
2023-04-25T21:30:11.555Z,54.03
2023-04-25T21:33:17.397Z,53.73
2023-04-25T21:36:23.794Z,53.54
2023-04-25T21:39:29.321Z,53.01
2023-04-25T21:42:38.994Z,53.61
2023-04-25T21:46:05.731Z,53.90
2023-04-25T21:49:11.753Z,54.10
2023-04-25T21:52:17.675Z,53.82
2023-04-25T21:55:24.269Z,53.81
2023-04-25T21:58:32.531Z,53.41
2023-04-25T22:01:38.996Z,53.96
2023-04-25T22:04:47.619Z,53.72
2023-04-25T22:07:57.302Z,53.67
2023-04-25T22:11:03.102Z,53.81
2023-04-25T22:14:12.426Z,54.17
2023-04-25T22:17:18.120Z,54.33
2023-04-25T22:20:26.785Z,54.69
2023-04-25T22:23:32.586Z,54.30
2023-04-25T22:26:39.434Z,54.38
2023-04-25T22:29:48.245Z,54.04
2023-04-25T22:32:54.979Z,54.02
2023-04-25T22:36:00.671Z,53.57
2023-04-25T22:39:08.971Z,53.31
2023-04-25T22:42:14.578Z,53.42
2023-04-25T22:45:23.958Z,53.33
2023-04-25T22:48:29.497Z,53.70
2023-04-25T22:51:37.347Z,53.76
2023-04-25T22:54:43.361Z,53.60
2023-04-25T22:57:49.946Z,54.08
2023-04-25T23:00:58.223Z,54.89
2023-04-25T23:04:04.670Z,55.32
2023-04-25T23:07:10.897Z,55.61
2023-04-25T23:10:17.896Z,56.08
2023-04-25T23:13:24.072Z,56.55
2023-04-25T23:16:33.237Z,56.58
2023-04-25T23:19:38.767Z,56.63
2023-04-25T23:22:45.096Z,56.44
2023-04-25T23:25:50.532Z,56.55
2023-04-25T23:28:57.080Z,57.02
2023-04-25T23:32:05.540Z,56.94
2023-04-25T23:35:13.388Z,57.05
2023-04-25T23:38:19.078Z,57.13
2023-04-25T23:41:25.820Z,57.34
2023-04-25T23:44:31.766Z,57.25
2023-04-25T23:47:40.920Z,57.20
2023-04-25T23:50:46.654Z,57.06
2023-04-25T23:53:53.014Z,57.20
2023-04-25T23:56:58.491Z,56.69
